Time;durP1;ratioP1;P1;durP2;ratioP2;P2;SDS_P1;SDS_P2;PMS_P1;PMS_P2;Temp;Humidity;BMP_temperature;BMP_pressure;BME280_temperature;BME280_humidity;BME280_pressure;Samples;Min_cycle;Max_cycle;Signal;HPM_P1;HPM_P2
2023/03/16 00:00:26;;;;;;;7.40;6.80;;;2.40;99.90;;;;;;5034556;28;20183;-65
2023/03/16 00:02:52;;;;;;;7.87;7.47;;;2.40;99.90;;;;;;5034715;28;20195;-64
2023/03/16 00:05:17;;;;;;;7.97;7.23;;;2.40;99.90;;;;;;5034823;28;20516;-64
2023/03/16 00:07:43;;;;;;;14.13;7.40;;;2.40;99.90;;;;;;5034706;28;20254;-64
2023/03/16 00:10:11;;;;;;;7.90;7.40;;;2.30;99.90;;;;;;5034458;28;20187;-64
2023/03/16 00:12:37;;;;;;;7.43;6.93;;;2.30;99.90;;;;;;5034115;28;20211;-64
2023/03/16 00:15:03;;;;;;;7.20;6.73;;;2.30;99.90;;;;;;5034530;28;20210;-64
2023/03/16 00:17:29;;;;;;;7.50;7.00;;;2.30;99.90;;;;;;5034497;28;20533;-64
2023/03/16 00:19:56;;;;;;;7.83;7.43;;;2.30;99.90;;;;;;5033904;28;20197;-64
2023/03/16 00:22:24;;;;;;;8.90;7.83;;;2.30;99.90;;;;;;5034807;28;20226;-64
2023/03/16 00:24:49;;;;;;;8.73;8.13;;;2.20;99.90;;;;;;5034565;28;20672;-64
2023/03/16 00:27:16;;;;;;;8.03;7.53;;;2.20;99.90;;;;;;5033178;28;20184;-64
2023/03/16 00:29:45;;;;;;;9.43;8.53;;;2.30;99.90;;;;;;5033939;28;20187;-64
2023/03/16 00:32:13;;;;;;;7.90;7.40;;;2.30;99.90;;;;;;5034443;28;20285;-64
2023/03/16 00:34:39;;;;;;;7.87;7.37;;;2.30;99.90;;;;;;5034673;28;20179;-64
2023/03/16 00:37:04;;;;;;;7.40;7.00;;;2.30;99.90;;;;;;5034485;28;20167;-64
2023/03/16 00:39:34;;;;;;;7.97;7.37;;;2.40;99.90;;;;;;5033767;28;20190;-64
2023/03/16 00:42:03;;;;;;;12.30;7.60;;;2.40;99.90;;;;;;5034406;28;20191;-64
2023/03/16 00:44:28;;;;;;;8.33;7.73;;;2.50;99.90;;;;;;5034210;28;20637;-64
2023/03/16 00:46:54;;;;;;;7.93;7.13;;;2.50;99.90;;;;;;5034212;28;20229;-64
2023/03/16 00:49:21;;;;;;;7.53;7.13;;;2.50;99.90;;;;;;5033948;28;20637;-64
2023/03/16 00:51:46;;;;;;;8.60;7.97;;;2.60;99.90;;;;;;5033743;28;20222;-64
2023/03/16 00:54:12;;;;;;;8.33;7.83;;;2.60;99.90;;;;;;5034273;28;20203;-64
2023/03/16 00:56:38;;;;;;;9.77;9.07;;;2.60;99.90;;;;;;5032275;28;20266;-64
2023/03/16 00:59:04;;;;;;;8.20;7.70;;;2.60;99.90;;;;;;5033823;28;20183;-64
2023/03/16 01:01:31;;;;;;;9.53;7.63;;;2.60;99.90;;;;;;5034146;28;20175;-64
2023/03/16 01:03:58;;;;;;;8.03;7.53;;;2.70;99.90;;;;;;5033576;28;20184;-64
2023/03/16 01:06:25;;;;;;;8.13;7.53;;;2.70;99.90;;;;;;5034118;28;20779;-64
2023/03/16 01:08:51;;;;;;;7.33;7.00;;;2.70;99.90;;;;;;5032322;28;20175;-64
2023/03/16 01:11:20;;;;;;;7.93;7.43;;;2.70;99.90;;;;;;5033139;28;20196;-64
2023/03/16 01:13:47;;;;;;;7.13;6.73;;;2.70;99.90;;;;;;5033554;28;20630;-64
2023/03/16 01:16:13;;;;;;;8.97;8.17;;;2.70;99.90;;;;;;5033293;28;20551;-64
2023/03/16 01:18:40;;;;;;;7.40;7.00;;;2.70;99.90;;;;;;5033552;28;20179;-64
2023/03/16 01:21:07;;;;;;;7.67;7.17;;;2.70;99.90;;;;;;5033019;28;20545;-64
2023/03/16 01:23:34;;;;;;;8.33;7.23;;;2.70;99.90;;;;;;5033371;28;20193;-64
2023/03/16 01:26:00;;;;;;;7.07;6.60;;;2.70;99.90;;;;;;5033231;28;20195;-64
2023/03/16 01:28:28;;;;;;;7.57;7.03;;;2.70;99.90;;;;;;5033469;28;20179;-64
2023/03/16 01:31:00;;;;;;;7.73;7.30;;;2.70;99.90;;;;;;5031532;28;20179;-64
2023/03/16 01:33:27;;;;;;;8.90;8.10;;;2.70;99.90;;;;;;5033264;28;20184;-64
2023/03/16 01:35:54;;;;;;;7.63;7.03;;;2.70;99.90;;;;;;5032953;28;20222;-64
2023/03/16 01:38:20;;;;;;;12.57;8.40;;;2.70;99.90;;;;;;5033102;28;20607;-64
2023/03/16 01:40:50;;;;;;;8.73;8.23;;;2.70;99.90;;;;;;5033132;28;20195;-64
2023/03/16 01:43:19;;;;;;;9.27;7.20;;;2.70;99.90;;;;;;5033086;28;20195;-64
2023/03/16 01:46:03;;;;;;;7.73;7.23;;;2.70;99.90;;;;;;5032943;28;20184;-64
2023/03/16 01:48:36;;;;;;;7.40;7.00;;;2.70;99.90;;;;;;5033111;28;20163;-64
2023/03/16 01:51:10;;;;;;;7.40;7.00;;;2.70;99.90;;;;;;5032447;28;20538;-64
2023/03/16 01:53:38;;;;;;;7.73;7.27;;;2.70;99.90;;;;;;5032801;28;20191;-64
2023/03/16 01:56:08;;;;;;;9.17;8.47;;;2.70;99.90;;;;;;5032697;28;20178;-64
2023/03/16 01:58:36;;;;;;;8.53;8.03;;;2.70;99.90;;;;;;5032957;28;20431;-64
2023/03/16 02:01:02;;;;;;;7.37;6.97;;;2.70;99.90;;;;;;5030942;28;20282;-64
2023/03/16 02:03:29;;;;;;;7.20;6.80;;;2.70;99.90;;;;;;5032568;28;20764;-64
2023/03/16 02:06:10;;;;;;;7.10;6.80;;;2.70;99.90;;;;;;5032498;28;20176;-64
2023/03/16 02:08:37;;;;;;;7.73;7.17;;;2.70;99.90;;;;;;5031621;28;20645;-64
2023/03/16 02:11:05;;;;;;;7.27;6.93;;;2.70;99.90;;;;;;5032177;28;20222;-64
2023/03/16 02:13:35;;;;;;;7.93;7.53;;;2.70;99.90;;;;;;5032711;28;20203;-65
2023/03/16 02:16:04;;;;;;;8.00;7.30;;;2.70;99.90;;;;;;5012797;28;20172;-65
2023/03/16 02:18:30;;;;;;;8.40;7.80;;;2.70;99.90;;;;;;5012905;28;20180;-65
2023/03/16 02:21:31;;;;;;;7.77;7.23;;;2.70;99.90;;;;;;5031653;28;20649;-64
2023/03/16 02:23:58;;;;;;;8.07;7.57;;;2.80;99.90;;;;;;5032031;28;20592;-65
2023/03/16 02:26:56;;;;;;;8.13;7.40;;;2.70;99.90;;;;;;5031383;28;20168;-64
2023/03/16 02:29:56;;;;;;;7.60;7.20;;;2.70;99.90;;;;;;5017905;28;20180;-65
2023/03/16 02:32:25;;;;;;;8.10;7.57;;;2.70;99.90;;;;;;5032052;28;20230;-65
2023/03/16 02:34:51;;;;;;;7.47;6.97;;;2.70;99.90;;;;;;5031936;28;20191;-64
2023/03/16 02:37:16;;;;;;;7.80;7.20;;;2.60;99.90;;;;;;5031869;28;20657;-63
2023/03/16 02:39:45;;;;;;;7.50;7.10;;;2.60;99.90;;;;;;5030865;28;20171;-65
2023/03/16 02:42:14;;;;;;;8.00;7.50;;;2.60;99.90;;;;;;5031513;28;20761;-65
2023/03/16 02:44:43;;;;;;;8.23;7.73;;;2.60;99.90;;;;;;5031471;28;20180;-65
2023/03/16 02:47:15;;;;;;;8.93;8.33;;;2.60;99.90;;;;;;5030736;28;20175;-65
2023/03/16 02:49:44;;;;;;;11.10;8.87;;;2.60;99.90;;;;;;5031395;28;20262;-65
2023/03/16 02:52:10;;;;;;;8.50;8.10;;;2.60;99.90;;;;;;5030661;28;20211;-64
2023/03/16 02:54:37;;;;;;;13.00;7.53;;;2.60;99.90;;;;;;5031864;28;20167;-65
2023/03/16 02:57:03;;;;;;;8.60;7.87;;;2.60;99.90;;;;;;5031784;28;20644;-65
2023/03/16 02:59:29;;;;;;;7.20;6.90;;;2.70;99.90;;;;;;5031638;28;20217;-65
2023/03/16 03:01:55;;;;;;;7.50;7.10;;;2.70;99.90;;;;;;5030987;28;20183;-64
2023/03/16 03:04:22;;;;;;;7.30;6.90;;;2.70;99.90;;;;;;5030205;28;20274;-64
2023/03/16 03:06:48;;;;;;;8.03;7.50;;;2.70;99.90;;;;;;5031781;28;20655;-63
2023/03/16 03:09:13;;;;;;;7.17;6.87;;;2.70;99.90;;;;;;5030990;28;20175;-65
2023/03/16 03:11:39;;;;;;;7.70;7.20;;;2.70;99.90;;;;;;5031146;28;20585;-65
2023/03/16 03:14:05;;;;;;;7.10;6.70;;;2.70;99.90;;;;;;5031332;28;20183;-64
2023/03/16 03:16:31;;;;;;;7.33;6.90;;;2.70;99.90;;;;;;5031364;28;20190;-65
2023/03/16 03:18:57;;;;;;;8.30;7.50;;;2.70;99.90;;;;;;5030829;28;20180;-64
2023/03/16 03:21:23;;;;;;;7.33;6.93;;;2.70;99.90;;;;;;5030651;28;20214;-65
2023/03/16 03:23:49;;;;;;;7.63;7.07;;;2.80;99.90;;;;;;5031388;28;20223;-65
2023/03/16 03:26:15;;;;;;;7.37;6.87;;;2.80;99.90;;;;;;5030402;28;20649;-65
2023/03/16 03:28:41;;;;;;;7.07;6.67;;;2.70;99.90;;;;;;5031454;28;20180;-64
2023/03/16 03:31:17;;;;;;;7.70;7.30;;;2.70;99.90;;;;;;5030617;28;20193;-64
2023/03/16 03:33:43;;;;;;;9.47;7.20;;;2.80;99.90;;;;;;5031395;28;20164;-64
2023/03/16 03:36:10;;;;;;;8.47;6.90;;;2.70;99.90;;;;;;5030964;28;20179;-65
2023/03/16 03:38:36;;;;;;;7.40;7.10;;;2.70;99.90;;;;;;5031351;28;20178;-64
2023/03/16 03:41:01;;;;;;;7.17;6.80;;;2.70;99.90;;;;;;5030826;28;20175;-64
2023/03/16 03:43:27;;;;;;;7.77;7.27;;;2.70;99.90;;;;;;5031321;28;20245;-64
2023/03/16 03:45:57;;;;;;;6.80;6.50;;;2.70;99.90;;;;;;5030994;28;20259;-64
2023/03/16 03:48:23;;;;;;;7.17;6.60;;;2.70;99.90;;;;;;5031088;28;20171;-64
2023/03/16 03:50:49;;;;;;;6.70;6.40;;;2.70;99.90;;;;;;5030647;28;20705;-64
2023/03/16 03:53:15;;;;;;;6.83;6.43;;;2.70;99.90;;;;;;5029498;28;20314;-64
2023/03/16 03:55:41;;;;;;;7.20;6.90;;;2.70;99.90;;;;;;5030917;28;20171;-64
2023/03/16 03:58:06;;;;;;;7.60;7.00;;;2.70;99.90;;;;;;5031228;28;20708;-65
2023/03/16 04:00:32;;;;;;;7.07;6.73;;;2.70;99.90;;;;;;5030990;28;20163;-65
2023/03/16 04:02:57;;;;;;;7.07;6.77;;;2.70;99.90;;;;;;5030718;28;20749;-64
2023/03/16 04:05:26;;;;;;;8.50;7.90;;;2.70;99.90;;;;;;5031058;28;20509;-65
2023/03/16 04:07:56;;;;;;;7.67;7.17;;;2.70;99.90;;;;;;5030798;28;20265;-65
2023/03/16 04:10:26;;;;;;;7.10;6.80;;;2.80;99.90;;;;;;5030989;28;20551;-63
2023/03/16 04:12:52;;;;;;;6.77;6.43;;;2.80;99.90;;;;;;5030831;28;20333;-63
2023/03/16 04:15:18;;;;;;;6.90;6.47;;;2.80;99.90;;;;;;5031036;28;20195;-64
2023/03/16 04:17:44;;;;;;;6.90;6.50;;;2.80;99.90;;;;;;5030845;28;20253;-64
2023/03/16 04:20:14;;;;;;;6.53;6.23;;;2.80;99.90;;;;;;5030722;28;20685;-64
2023/03/16 04:22:41;;;;;;;11.67;8.47;;;2.80;99.90;;;;;;5030908;28;20206;-64
2023/03/16 04:25:12;;;;;;;7.33;6.93;;;2.80;99.90;;;;;;5030740;28;20191;-64
2023/03/16 04:27:37;;;;;;;6.37;6.07;;;2.80;99.90;;;;;;5030613;28;20234;-64
2023/03/16 04:30:05;;;;;;;7.27;6.87;;;2.90;99.90;;;;;;5030505;28;20203;-65
2023/03/16 04:32:34;;;;;;;7.10;6.73;;;2.90;99.90;;;;;;5033057;28;20259;-64
2023/03/16 04:35:00;;;;;;;7.20;6.90;;;2.90;99.90;;;;;;5034496;28;20163;-64
2023/03/16 04:37:26;;;;;;;7.83;6.93;;;3.00;99.90;;;;;;5034329;28;20528;-64
2023/03/16 04:39:51;;;;;;;6.90;6.53;;;3.00;99.90;;;;;;5034363;28;20182;-64
2023/03/16 04:42:17;;;;;;;6.83;6.50;;;3.00;99.90;;;;;;5033783;28;20254;-64
2023/03/16 04:44:43;;;;;;;7.13;6.73;;;3.00;99.90;;;;;;5033279;28;20207;-65
2023/03/16 04:47:12;;;;;;;7.10;6.70;;;3.00;99.90;;;;;;5033071;28;20686;-64
2023/03/16 04:49:37;;;;;;;7.07;6.67;;;3.00;99.90;;;;;;5033714;28;20198;-64
2023/03/16 04:52:03;;;;;;;6.77;6.37;;;3.00;99.90;;;;;;5033741;28;20672;-65
2023/03/16 04:54:30;;;;;;;7.70;6.93;;;3.00;99.90;;;;;;5034152;28;20676;-64
2023/03/16 04:56:55;;;;;;;7.70;7.20;;;3.00;99.90;;;;;;5033804;28;20218;-65
2023/03/16 04:59:21;;;;;;;7.50;6.87;;;3.00;99.90;;;;;;5033746;28;20207;-65
2023/03/16 05:01:47;;;;;;;7.80;7.30;;;3.00;99.90;;;;;;5033494;28;20195;-65
2023/03/16 05:04:13;;;;;;;7.40;7.07;;;3.00;99.90;;;;;;5033805;28;20222;-65
2023/03/16 05:06:40;;;;;;;7.07;6.67;;;3.10;99.90;;;;;;5033564;28;20215;-64
2023/03/16 05:09:07;;;;;;;7.67;6.97;;;3.10;99.90;;;;;;5033572;28;20183;-64
2023/03/16 05:11:33;;;;;;;7.33;6.93;;;3.10;99.90;;;;;;5033131;28;20290;-64
2023/03/16 05:14:00;;;;;;;7.30;6.90;;;3.10;99.90;;;;;;5033887;28;20474;-64
2023/03/16 05:16:26;;;;;;;7.87;7.47;;;3.10;99.90;;;;;;5033485;28;20641;-64
2023/03/16 05:18:52;;;;;;;7.50;7.00;;;3.10;99.90;;;;;;5033838;28;20180;-65
2023/03/16 05:21:17;;;;;;;7.37;7.07;;;3.10;99.90;;;;;;5032807;28;20191;-65
2023/03/16 05:23:43;;;;;;;8.47;7.67;;;3.10;99.90;;;;;;5033010;28;20551;-64
2023/03/16 05:26:09;;;;;;;8.57;8.07;;;3.10;99.90;;;;;;5032590;28;20176;-64
2023/03/16 05:28:34;;;;;;;8.07;7.67;;;3.10;99.90;;;;;;5033121;28;20189;-64
2023/03/16 05:31:02;;;;;;;8.63;8.03;;;3.10;99.90;;;;;;5032763;28;20542;-65
2023/03/16 05:33:28;;;;;;;7.30;6.90;;;3.10;99.90;;;;;;5032795;28;20231;-64
2023/03/16 05:35:53;;;;;;;7.60;7.20;;;3.10;99.90;;;;;;5033276;28;20542;-65
2023/03/16 05:38:19;;;;;;;7.20;6.83;;;3.10;99.90;;;;;;5032710;28;20238;-64
2023/03/16 05:40:45;;;;;;;8.43;7.90;;;3.10;99.90;;;;;;5032836;28;20172;-65
2023/03/16 05:43:10;;;;;;;7.50;7.10;;;3.10;99.90;;;;;;5032994;28;20541;-64
2023/03/16 05:45:36;;;;;;;7.90;7.50;;;3.10;99.90;;;;;;5033033;28;20198;-65
2023/03/16 05:48:04;;;;;;;8.13;7.63;;;3.10;99.90;;;;;;5031748;28;20171;-64
2023/03/16 05:50:30;;;;;;;8.20;7.47;;;3.10;99.90;;;;;;5032535;28;20241;-65
2023/03/16 05:52:56;;;;;;;7.70;7.30;;;3.10;99.90;;;;;;5032914;28;20490;-65
2023/03/16 05:55:22;;;;;;;7.70;7.30;;;3.10;99.90;;;;;;5032539;28;20184;-64
2023/03/16 05:57:47;;;;;;;8.90;8.30;;;3.20;99.90;;;;;;5032829;28;20207;-65
2023/03/16 06:00:15;;;;;;;10.80;8.03;;;3.10;99.90;;;;;;5032261;28;20229;-64
2023/03/16 06:02:50;;;;;;;8.83;8.27;;;3.20;99.90;;;;;;5032785;28;20286;-64
2023/03/16 06:05:17;;;;;;;8.60;8.00;;;3.20;99.90;;;;;;5032516;28;20194;-64
2023/03/16 06:07:44;;;;;;;8.30;7.70;;;3.30;99.90;;;;;;5032337;28;20580;-64
2023/03/16 06:10:11;;;;;;;8.93;8.33;;;3.40;99.90;;;;;;5032303;28;20176;-65
2023/03/16 06:12:36;;;;;;;8.77;8.23;;;3.40;99.90;;;;;;5032132;28;20223;-64
2023/03/16 06:15:06;;;;;;;8.00;7.60;;;3.40;99.90;;;;;;5032214;28;20187;-64
2023/03/16 06:17:32;;;;;;;8.47;7.97;;;3.50;99.90;;;;;;5032193;28;20167;-64
2023/03/16 06:19:58;;;;;;;9.30;8.70;;;3.50;99.90;;;;;;5031919;28;20186;-64
2023/03/16 06:22:24;;;;;;;8.47;7.83;;;3.60;99.90;;;;;;5032233;28;20561;-64
2023/03/16 06:24:50;;;;;;;8.77;8.13;;;3.70;99.90;;;;;;5032106;28;20177;-64
2023/03/16 06:27:17;;;;;;;9.30;8.70;;;3.80;99.90;;;;;;5031656;28;20258;-64
2023/03/16 06:29:43;;;;;;;10.63;9.73;;;3.90;99.90;;;;;;5030285;28;20183;-64
2023/03/16 06:32:08;;;;;;;13.53;12.83;;;3.90;99.90;;;;;;5031989;28;20215;-64
2023/03/16 06:34:35;;;;;;;8.33;7.80;;;4.00;99.90;;;;;;5030927;28;20210;-65
2023/03/16 06:37:01;;;;;;;8.83;8.33;;;4.10;99.90;;;;;;5031821;28;20180;-64
2023/03/16 06:39:27;;;;;;;9.00;8.33;;;4.10;99.90;;;;;;5031923;28;20249;-65
2023/03/16 06:41:52;;;;;;;9.30;8.60;;;4.20;99.90;;;;;;5031714;28;20206;-64
2023/03/16 06:44:18;;;;;;;8.13;7.63;;;4.20;99.90;;;;;;5032012;28;20519;-65
2023/03/16 06:46:43;;;;;;;7.97;7.23;;;4.30;99.90;;;;;;5031673;28;20182;-64
2023/03/16 06:49:09;;;;;;;7.83;7.23;;;4.30;99.90;;;;;;5031619;28;20183;-64
2023/03/16 06:51:35;;;;;;;7.57;7.00;;;4.40;99.90;;;;;;5031517;28;20283;-64
2023/03/16 06:54:01;;;;;;;7.20;6.70;;;4.50;99.90;;;;;;5031132;28;20640;-65
2023/03/16 06:56:26;;;;;;;7.63;6.83;;;4.50;99.90;;;;;;5031857;28;20174;-64
2023/03/16 06:58:52;;;;;;;6.40;5.90;;;4.60;99.90;;;;;;5031705;28;20267;-64
2023/03/16 07:01:18;;;;;;;7.77;7.27;;;4.60;99.90;;;;;;5031427;28;20176;-65
2023/03/16 07:03:44;;;;;;;6.67;6.27;;;4.60;99.90;;;;;;5029881;28;20176;-65
2023/03/16 07:06:09;;;;;;;8.50;7.70;;;4.70;99.90;;;;;;5029398;28;20187;-65
2023/03/16 07:08:35;;;;;;;8.67;7.10;;;4.80;99.90;;;;;;5033051;28;20175;-64
2023/03/16 07:11:00;;;;;;;7.73;7.23;;;4.80;99.90;;;;;;5030884;28;20171;-65
2023/03/16 07:13:26;;;;;;;7.80;7.10;;;4.90;99.90;;;;;;5031045;28;20210;-64
2023/03/16 07:15:52;;;;;;;6.83;6.43;;;5.00;99.90;;;;;;5031116;28;20587;-65
2023/03/16 07:18:18;;;;;;;9.23;8.63;;;5.00;99.90;;;;;;5031240;28;20573;-64
2023/03/16 07:20:44;;;;;;;7.07;6.47;;;5.10;99.90;;;;;;5031055;28;20179;-64
2023/03/16 07:23:10;;;;;;;8.17;7.57;;;5.20;99.90;;;;;;5030888;28;20199;-64
2023/03/16 07:25:36;;;;;;;7.10;6.40;;;5.10;99.90;;;;;;5031211;28;20191;-64
2023/03/16 07:28:02;;;;;;;6.77;6.30;;;5.20;99.90;;;;;;5031212;28;20219;-64
2023/03/16 07:30:28;;;;;;;6.67;6.27;;;5.30;99.90;;;;;;5031063;28;20216;-64
2023/03/16 07:32:53;;;;;;;7.07;6.67;;;5.40;99.90;;;;;;5030918;28;20605;-65
2023/03/16 07:35:20;;;;;;;7.47;6.93;;;5.50;99.90;;;;;;5030725;28;20180;-64
2023/03/16 07:37:46;;;;;;;7.77;7.03;;;5.60;99.90;;;;;;5031021;28;20637;-63
2023/03/16 07:40:12;;;;;;;8.07;7.47;;;5.70;99.90;;;;;;5030561;28;20179;-64
2023/03/16 07:42:38;;;;;;;7.17;6.67;;;5.80;99.90;;;;;;5031279;28;20248;-64
2023/03/16 07:45:05;;;;;;;7.33;6.80;;;5.90;99.90;;;;;;5031101;28;20187;-65
2023/03/16 07:47:32;;;;;;;11.03;6.80;;;6.00;99.90;;;;;;5031162;28;20182;-64
2023/03/16 07:49:58;;;;;;;7.40;6.80;;;6.30;99.90;;;;;;5030537;28;20286;-64
2023/03/16 07:52:23;;;;;;;7.43;6.93;;;6.40;99.90;;;;;;5030897;28;20299;-64
2023/03/16 07:54:50;;;;;;;7.67;7.17;;;6.50;99.90;;;;;;5030895;28;20182;-64
2023/03/16 07:57:15;;;;;;;7.33;6.93;;;6.60;99.90;;;;;;5031018;28;20603;-64
2023/03/16 07:59:41;;;;;;;7.60;6.90;;;6.60;99.90;;;;;;5030511;28;20184;-64
2023/03/16 08:02:15;;;;;;;6.50;6.00;;;6.70;99.90;;;;;;5030821;28;20191;-64
2023/03/16 08:04:41;;;;;;;6.73;6.33;;;6.80;99.90;;;;;;5030870;28;20188;-64
2023/03/16 08:07:08;;;;;;;6.67;6.17;;;6.80;99.90;;;;;;5032977;28;20180;-64
2023/03/16 08:09:34;;;;;;;6.77;6.07;;;6.80;99.90;;;;;;5034238;28;20184;-64
2023/03/16 08:12:02;;;;;;;6.57;6.07;;;6.90;99.90;;;;;;5034981;28;20229;-65
2023/03/16 08:14:28;;;;;;;7.23;6.57;;;7.00;99.90;;;;;;5034413;28;20314;-65
2023/03/16 08:16:54;;;;;;;7.30;6.73;;;7.10;99.90;;;;;;5034515;28;20179;-65
2023/03/16 08:19:20;;;;;;;7.20;6.67;;;7.00;99.90;;;;;;5034203;28;20195;-65
2023/03/16 08:21:45;;;;;;;7.63;6.90;;;6.90;99.90;;;;;;5033421;28;20199;-65
2023/03/16 08:24:11;;;;;;;6.47;6.00;;;6.90;99.90;;;;;;5033028;28;20202;-64
2023/03/16 08:26:37;;;;;;;6.50;6.00;;;6.90;99.90;;;;;;5032621;28;20237;-62
2023/03/16 08:29:03;;;;;;;8.43;6.27;;;6.90;99.90;;;;;;5032936;28;20245;-65
2023/03/16 08:31:29;;;;;;;6.30;6.00;;;6.80;99.90;;;;;;5033828;28;20199;-65
2023/03/16 08:33:56;;;;;;;6.77;6.37;;;7.00;99.90;;;;;;5034269;28;20202;-65
2023/03/16 08:36:22;;;;;;;6.43;6.03;;;7.00;99.90;;;;;;5034206;28;20175;-65
2023/03/16 08:38:48;;;;;;;7.37;6.87;;;7.10;99.90;;;;;;5034430;28;20171;-64
2023/03/16 08:41:16;;;;;;;6.63;6.23;;;7.10;99.90;;;;;;5033873;28;20171;-65
2023/03/16 08:43:41;;;;;;;6.97;6.37;;;7.10;99.90;;;;;;5032871;28;20195;-65
2023/03/16 08:46:07;;;;;;;7.33;6.83;;;7.10;99.90;;;;;;5033948;28;20695;-64
2023/03/16 08:48:33;;;;;;;7.37;6.83;;;7.10;99.90;;;;;;5034216;28;20202;-65
2023/03/16 08:51:03;;;;;;;7.10;6.60;;;7.10;99.90;;;;;;5031517;28;20176;-65
2023/03/16 08:53:29;;;;;;;7.77;7.27;;;7.20;99.90;;;;;;5033443;28;20682;-65
2023/03/16 08:56:10;;;;;;;7.37;6.93;;;7.30;99.90;;;;;;5032089;28;20641;-65
2023/03/16 08:58:36;;;;;;;7.67;7.07;;;7.40;99.90;;;;;;5033207;28;20190;-64
2023/03/16 09:01:04;;;;;;;7.80;7.20;;;7.50;99.90;;;;;;5053549;28;20171;-64
2023/03/16 09:03:31;;;;;;;7.77;7.17;;;7.60;99.90;;;;;;5046278;28;20230;-64
2023/03/16 09:06:01;;;;;;;7.87;7.27;;;7.70;99.90;;;;;;5033213;28;20175;-64
2023/03/16 09:08:28;;;;;;;7.37;6.67;;;7.80;99.90;;;;;;5031878;28;20180;-65
2023/03/16 09:11:08;;;;;;;7.73;7.10;;;7.80;99.90;;;;;;5032588;28;20180;-64
2023/03/16 09:13:35;;;;;;;7.23;6.70;;;8.00;99.90;;;;;;5032473;28;20681;-65
2023/03/16 09:16:01;;;;;;;7.30;6.90;;;8.10;99.90;;;;;;5029265;28;20183;-65
2023/03/16 09:18:27;;;;;;;6.50;6.10;;;8.20;99.90;;;;;;5032428;28;20191;-66
2023/03/16 09:20:58;;;;;;;6.63;6.23;;;8.40;99.90;;;;;;5032579;28;20633;-65
2023/03/16 09:23:25;;;;;;;6.50;6.20;;;8.60;99.90;;;;;;5031325;28;20207;-65
2023/03/16 09:25:50;;;;;;;5.87;5.47;;;8.80;99.90;;;;;;5033284;28;20179;-65
2023/03/16 09:28:16;;;;;;;6.07;5.67;;;9.00;99.90;;;;;;5032950;28;20190;-66
2023/03/16 09:30:42;;;;;;;6.07;5.63;;;9.30;99.90;;;;;;5033234;28;20179;-65
2023/03/16 09:33:08;;;;;;;6.10;5.70;;;9.50;99.90;;;;;;5032822;28;20688;-65
2023/03/16 09:35:33;;;;;;;5.50;5.17;;;9.80;99.90;;;;;;5033125;28;20633;-65
2023/03/16 09:37:59;;;;;;;6.90;5.33;;;10.10;99.90;;;;;;5032670;28;20183;-65
2023/03/16 09:40:27;;;;;;;6.40;5.97;;;10.20;99.90;;;;;;5032759;28;20250;-65
2023/03/16 09:43:02;;;;;;;6.77;6.27;;;10.20;99.90;;;;;;5032775;28;20208;-65
2023/03/16 09:45:30;;;;;;;5.70;5.30;;;10.10;99.90;;;;;;5029536;28;20546;-66
2023/03/16 09:48:02;;;;;;;5.90;5.47;;;10.00;99.90;;;;;;5032940;28;20179;-65
2023/03/16 09:50:33;;;;;;;6.23;5.80;;;9.90;99.90;;;;;;5032577;28;20176;-65
2023/03/16 09:53:22;;;;;;;6.90;6.10;;;9.70;99.90;;;;;;5032728;28;20727;-65
2023/03/16 09:55:52;;;;;;;5.73;5.43;;;9.50;99.90;;;;;;5012683;28;20187;-65
2023/03/16 09:58:21;;;;;;;6.50;6.10;;;9.50;99.90;;;;;;5014524;28;20183;-65
2023/03/16 10:01:08;;;;;;;6.03;5.53;;;9.50;99.90;;;;;;5031061;28;20207;-65
2023/03/16 10:03:49;;;;;;;5.97;5.57;;;9.50;99.90;;;;;;5032499;28;20191;-65
2023/03/16 10:06:15;;;;;;;7.00;6.60;;;9.60;99.90;;;;;;5032467;28;20176;-65
2023/03/16 10:08:58;;;;;;;6.83;5.90;;;9.60;99.90;;;;;;5032311;28;20543;-65
2023/03/16 10:11:47;;;;;;;5.67;5.17;;;9.60;99.90;;;;;;5031956;28;20175;-65
2023/03/16 10:14:18;;;;;;;6.13;5.53;;;9.60;99.90;;;;;;5032113;28;20281;-66
2023/03/16 10:16:50;;;;;;;6.30;5.80;;;9.60;99.90;;;;;;5032342;28;20176;-65
2023/03/16 10:19:37;;;;;;;5.70;5.20;;;9.60;99.90;;;;;;5030559;28;20841;-65
2023/03/16 10:22:26;;;;;;;5.63;5.13;;;9.70;99.90;;;;;;5032157;28;20195;-66
2023/03/16 10:25:11;;;;;;;5.90;5.50;;;9.90;99.90;;;;;;5032260;28;20199;-65
2023/03/16 10:27:39;;;;;;;6.20;5.80;;;10.10;99.90;;;;;;5031410;28;20184;-66
2023/03/16 10:30:26;;;;;;;6.10;5.70;;;10.30;99.90;;;;;;5030908;28;20175;-65
2023/03/16 10:32:53;;;;;;;6.43;6.03;;;10.40;99.90;;;;;;5031833;28;20209;-65
2023/03/16 10:35:43;;;;;;;6.43;5.90;;;10.50;99.90;;;;;;5031942;28;20182;-65
2023/03/16 10:38:39;;;;;;;5.57;5.27;;;10.60;99.90;;;;;;5030506;28;20256;-65
2023/03/16 10:41:17;;;;;;;6.00;5.60;;;10.80;99.90;;;;;;5031493;28;20178;-65
2023/03/16 10:43:49;;;;;;;5.90;5.47;;;10.70;99.90;;;;;;5031464;28;20195;-64
2023/03/16 10:46:15;;;;;;;6.40;6.00;;;10.80;99.90;;;;;;5031736;28;20609;-65
2023/03/16 10:48:42;;;;;;;5.50;5.10;;;10.70;99.90;;;;;;5031607;28;20206;-65
2023/03/16 10:51:13;;;;;;;6.90;6.30;;;10.60;99.90;;;;;;5031249;28;20179;-65
2023/03/16 10:53:42;;;;;;;5.30;5.07;;;10.70;99.90;;;;;;5031676;28;20225;-65
2023/03/16 10:56:11;;;;;;;5.73;5.33;;;10.90;99.90;;;;;;5031200;28;20183;-65
2023/03/16 10:58:41;;;;;;;5.07;4.67;;;11.10;99.90;;;;;;5031805;28;20195;-65
2023/03/16 11:01:27;;;;;;;5.17;4.77;;;11.30;99.90;;;;;;5031106;28;20229;-65
2023/03/16 11:03:55;;;;;;;5.20;4.90;;;11.60;99.90;;;;;;5031652;28;20241;-65
2023/03/16 11:06:23;;;;;;;4.87;4.60;;;12.00;99.90;;;;;;5031318;28;20542;-65
2023/03/16 11:08:51;;;;;;;5.40;5.00;;;12.20;99.90;;;;;;5031767;28;20644;-65
2023/03/16 11:11:24;;;;;;;4.63;4.33;;;12.40;99.90;;;;;;5030798;28;20180;-65
2023/03/16 11:13:56;;;;;;;4.87;4.60;;;12.90;99.90;;;;;;5031177;28;20180;-65
2023/03/16 11:16:35;;;;;;;4.90;4.60;;;13.00;99.90;;;;;;5031354;28;20160;-65
2023/03/16 11:19:33;;;;;;;7.67;5.33;;;12.80;99.90;;;;;;5031006;28;20171;-64
2023/03/16 11:22:23;;;;;;;4.80;4.40;;;12.90;99.90;;;;;;5029998;28;20569;-65
2023/03/16 11:24:54;;;;;;;4.87;4.40;;;13.30;99.90;;;;;;5030454;28;20649;-65
2023/03/16 11:27:25;;;;;;;4.97;4.67;;;13.50;99.90;;;;;;5030844;28;20655;-65
2023/03/16 11:30:15;;;;;;;5.33;4.60;;;13.40;99.90;;;;;;5029595;28;20253;-65
2023/03/16 11:32:47;;;;;;;5.13;4.73;;;13.20;99.90;;;;;;5030820;28;20232;-65
2023/03/16 11:35:18;;;;;;;5.30;5.00;;;13.00;99.90;;;;;;5031034;28;20163;-65
2023/03/16 11:38:08;;;;;;;4.87;4.43;;;13.10;99.90;;;;;;5030720;28;20168;-65
2023/03/16 11:40:35;;;;;;;5.40;4.50;;;13.40;99.90;;;;;;5030760;28;20198;-65
2023/03/16 11:43:22;;;;;;;5.37;5.00;;;13.60;99.90;;;;;;5034994;28;20195;-65
2023/03/16 11:46:23;;;;;;;5.07;4.77;;;13.50;99.90;;;;;;5035222;28;20548;-65
2023/03/16 11:49:01;;;;;;;5.03;4.73;;;13.20;99.90;;;;;;4973793;28;20189;-65
2023/03/16 11:51:45;;;;;;;4.97;4.50;;;13.30;99.90;;;;;;5009438;28;20183;-65
2023/03/16 11:54:19;;;;;;;6.97;5.03;;;13.40;99.90;;;;;;5026144;28;20249;-65
2023/03/16 11:56:56;;;;;;;5.07;4.77;;;13.70;99.90;;;;;;5034792;28;20179;-65
2023/03/16 11:59:42;;;;;;;5.90;5.40;;;13.60;99.90;;;;;;5034793;28;20548;-65
2023/03/16 12:02:08;;;;;;;5.20;4.90;;;13.60;99.90;;;;;;5014927;28;20236;-66
2023/03/16 12:04:45;;;;;;;4.90;4.50;;;13.30;99.90;;;;;;5015283;28;20262;-65
2023/03/16 12:07:39;;;;;;;5.23;4.87;;;13.40;99.90;;;;;;5014980;28;20225;-65
2023/03/16 12:10:09;;;;;;;5.07;4.77;;;13.70;99.90;;;;;;5004100;28;20231;-65
2023/03/16 12:13:10;;;;;;;5.40;5.10;;;14.10;99.90;;;;;;5032584;28;20207;-65
2023/03/16 12:15:43;;;;;;;5.00;4.67;;;14.50;99.90;;;;;;5034646;28;20176;-66
2023/03/16 12:18:38;;;;;;;5.00;4.77;;;14.60;99.70;;;;;;5034287;28;20590;-65
2023/03/16 12:21:12;;;;;;;6.43;4.87;;;14.30;99.80;;;;;;5034247;28;20266;-65
2023/03/16 12:23:42;;;;;;;5.67;5.17;;;14.00;99.90;;;;;;5034428;28;20572;-65
2023/03/16 12:26:08;;;;;;;4.77;4.47;;;13.70;99.90;;;;;;5014495;28;20187;-66
2023/03/16 12:28:35;;;;;;;5.43;4.93;;;13.60;99.90;;;;;;5014725;28;20172;-65
2023/03/16 12:31:10;;;;;;;4.83;4.53;;;13.60;99.90;;;;;;5033398;28;20182;-65
2023/03/16 12:34:03;;;;;;;7.03;4.37;;;13.70;99.90;;;;;;5034466;28;20230;-65
2023/03/16 12:36:43;;;;;;;4.70;4.40;;;13.80;99.90;;;;;;5014571;28;20183;-65
2023/03/16 12:39:42;;;;;;;5.37;4.20;;;13.70;99.90;;;;;;5016754;28;20662;-65
2023/03/16 12:42:13;;;;;;;4.43;4.10;;;13.60;99.90;;;;;;5033945;28;20195;-65
2023/03/16 12:44:55;;;;;;;4.07;3.87;;;13.60;99.90;;;;;;5033922;28;20680;-64
2023/03/16 12:47:24;;;;;;;4.37;4.17;;;13.60;99.90;;;;;;5033019;28;20183;-65
2023/03/16 12:49:53;;;;;;;4.73;4.33;;;13.60;99.90;;;;;;5033626;28;20668;-65
2023/03/16 12:52:19;;;;;;;4.43;4.23;;;13.70;99.90;;;;;;5032266;28;20237;-65
2023/03/16 12:54:53;;;;;;;4.77;4.37;;;13.90;99.90;;;;;;5033886;28;20172;-65
2023/03/16 12:57:23;;;;;;;5.10;4.80;;;14.10;99.90;;;;;;5033614;28;20563;-65
2023/03/16 12:59:57;;;;;;;5.53;4.57;;;14.20;99.90;;;;;;5033278;28;20178;-65
2023/03/16 13:02:31;;;;;;;4.60;4.40;;;14.10;99.80;;;;;;5032529;28;20207;-65
2023/03/16 13:05:00;;;;;;;4.83;4.43;;;14.00;99.90;;;;;;5033138;28;20190;-65
2023/03/16 13:07:29;;;;;;;4.70;4.50;;;13.90;99.90;;;;;;5033229;28;20550;-65